createdAt,value
2022-12-23T00:01:28.153Z,93.57
2022-12-23T00:03:59.124Z,92.45
2022-12-23T00:06:26.624Z,93.07
2022-12-23T00:08:53.966Z,92.61
2022-12-23T00:11:21.203Z,92.35
2022-12-23T00:13:48.168Z,91.79
2022-12-23T00:16:15.683Z,92.40
2022-12-23T00:18:43.376Z,92.59
2022-12-23T00:21:16.457Z,92.35
2022-12-23T00:23:46.174Z,92.46
2022-12-23T00:26:15.787Z,92.47
2022-12-23T00:28:43.165Z,92.85
2022-12-23T00:31:10.898Z,94.33
2022-12-23T00:33:40.726Z,94.11
2022-12-23T00:36:16.432Z,94.55
2022-12-23T00:38:43.493Z,94.91
2022-12-23T00:41:16.592Z,95.04
2022-12-23T00:43:43.572Z,94.62
2022-12-23T00:46:10.512Z,94.50
2022-12-23T00:48:37.560Z,94.30
2022-12-23T00:51:04.607Z,94.12
2022-12-23T00:53:31.581Z,94.22
2022-12-23T00:55:58.556Z,94.58
2022-12-23T00:58:25.576Z,94.25
2022-12-23T01:00:53.818Z,93.95
2022-12-23T01:03:20.860Z,94.03
2022-12-23T01:05:47.806Z,93.84
2022-12-23T01:08:14.715Z,94.09
2022-12-23T01:10:41.716Z,94.33
2022-12-23T01:13:08.595Z,94.35
2022-12-23T01:15:35.533Z,95.05
2022-12-23T01:18:02.397Z,95.17
2022-12-23T01:20:29.347Z,94.96
2022-12-23T01:22:56.227Z,95.00
2022-12-23T01:25:23.341Z,95.38
2022-12-23T01:27:50.197Z,95.35
2022-12-23T01:30:17.284Z,95.30
2022-12-23T01:32:44.191Z,94.60
2022-12-23T01:35:11.137Z,94.11
2022-12-23T01:37:37.969Z,93.55
2022-12-23T01:40:08.340Z,93.87
2022-12-23T01:42:35.209Z,93.74
2022-12-23T01:45:12.223Z,93.31
2022-12-23T01:47:44.921Z,93.43
2022-12-23T01:50:40.710Z,93.83
2022-12-23T01:53:25.278Z,93.84
2022-12-23T01:56:02.305Z,93.87
2022-12-23T01:58:42.521Z,93.16
2022-12-23T02:01:10.981Z,92.37
2022-12-23T02:03:38.143Z,91.74
2022-12-23T02:06:05.704Z,91.16
2022-12-23T02:08:32.608Z,91.78
2022-12-23T02:11:35.168Z,91.59
2022-12-23T02:14:02.078Z,92.51
2022-12-23T02:16:34.125Z,92.38
2022-12-23T02:19:18.103Z,92.41
2022-12-23T02:22:08.151Z,91.86
2022-12-23T02:24:49.360Z,91.92
2022-12-23T02:27:23.895Z,92.54
2022-12-23T02:30:14.572Z,92.74
2022-12-23T02:33:15.026Z,93.15
2022-12-23T02:36:06.348Z,93.57
2022-12-23T02:38:47.983Z,93.79
2022-12-23T02:41:28.829Z,93.53
2022-12-23T02:44:08.515Z,93.35
2022-12-23T02:46:49.562Z,93.98
2022-12-23T02:49:20.853Z,93.78
2022-12-23T02:51:53.980Z,93.58
2022-12-23T02:54:29.078Z,92.88
2022-12-23T02:56:58.006Z,92.74
2022-12-23T02:59:29.503Z,92.38
2022-12-23T03:01:57.616Z,91.53
2022-12-23T03:04:24.698Z,91.34
2022-12-23T03:06:56.679Z,91.13
2022-12-23T03:10:02.286Z,92.24
2022-12-23T03:12:47.085Z,92.07
2022-12-23T03:15:37.629Z,91.99
2022-12-23T03:18:27.247Z,91.71
2022-12-23T03:21:03.777Z,91.37
2022-12-23T03:23:35.236Z,90.22
2022-12-23T03:26:22.467Z,89.64
2022-12-23T03:28:58.440Z,89.64
2022-12-23T03:31:30.097Z,89.42
2022-12-23T03:34:02.465Z,89.92
2022-12-23T03:36:34.913Z,89.93
2022-12-23T03:39:05.740Z,90.36
2022-12-23T03:41:39.746Z,91.15
2022-12-23T03:44:16.279Z,91.18
2022-12-23T03:47:15.234Z,90.90
2022-12-23T03:49:53.482Z,91.10
2022-12-23T03:52:31.263Z,91.24
2022-12-23T03:55:05.026Z,91.50
2022-12-23T03:57:58.078Z,91.07
2022-12-23T04:00:28.936Z,90.95
2022-12-23T04:02:55.960Z,91.04
2022-12-23T04:05:30.068Z,91.75
2022-12-23T04:08:13.359Z,92.03
2022-12-23T04:10:40.721Z,90.92
2022-12-23T04:13:08.155Z,90.65
2022-12-23T04:15:41.087Z,90.59
2022-12-23T04:18:09.270Z,90.27
2022-12-23T04:20:36.686Z,90.45
2022-12-23T04:23:03.816Z,89.78
2022-12-23T04:25:30.783Z,89.23
2022-12-23T04:27:57.594Z,89.31
2022-12-23T04:30:29.538Z,89.74
2022-12-23T04:33:00.821Z,89.77
2022-12-23T04:35:27.594Z,90.54
2022-12-23T04:37:54.506Z,91.55
2022-12-23T04:40:21.439Z,92.02
2022-12-23T04:42:48.422Z,91.52
2022-12-23T04:45:15.530Z,91.45
2022-12-23T04:47:42.506Z,90.98
2022-12-23T04:50:14.894Z,89.46
2022-12-23T04:52:42.650Z,88.97
2022-12-23T04:55:10.430Z,88.89
2022-12-23T04:57:37.336Z,88.17
2022-12-23T05:00:05.807Z,87.82
2022-12-23T05:02:32.773Z,87.93
2022-12-23T05:04:59.822Z,88.00
2022-12-23T05:07:26.861Z,88.38
2022-12-23T05:09:53.725Z,87.70
2022-12-23T05:12:20.717Z,87.34
2022-12-23T05:14:47.600Z,86.58
2022-12-23T05:17:14.495Z,87.17
2022-12-23T05:19:41.373Z,87.49
2022-12-23T05:22:08.222Z,87.46
2022-12-23T05:24:35.050Z,87.64
2022-12-23T05:27:01.922Z,87.22
2022-12-23T05:29:28.863Z,87.16
2022-12-23T05:31:55.896Z,87.44
2022-12-23T05:34:22.861Z,87.12
2022-12-23T05:36:49.961Z,86.94
2022-12-23T05:39:16.811Z,87.09
2022-12-23T05:41:43.916Z,86.48
2022-12-23T05:44:10.721Z,85.67
2022-12-23T05:46:37.732Z,85.62
2022-12-23T05:49:04.743Z,85.35
2022-12-23T05:51:31.626Z,86.38
2022-12-23T05:53:58.629Z,87.25
2022-12-23T05:56:25.608Z,87.32
2022-12-23T05:58:52.494Z,87.39
2022-12-23T06:01:19.432Z,87.09
2022-12-23T06:03:46.357Z,86.82
2022-12-23T06:06:13.398Z,86.74
2022-12-23T06:08:40.387Z,86.15
2022-12-23T06:11:07.246Z,86.31
2022-12-23T06:13:34.119Z,85.62
2022-12-23T06:16:01.042Z,85.58
2022-12-23T06:18:27.965Z,85.58
2022-12-23T06:20:54.853Z,85.26
2022-12-23T06:23:21.726Z,86.69
2022-12-23T06:25:48.682Z,86.67
2022-12-23T06:28:15.536Z,85.66
2022-12-23T06:30:42.569Z,85.98
2022-12-23T06:33:09.376Z,87.11
2022-12-23T06:35:36.200Z,86.29
2022-12-23T06:38:05.484Z,89.10
2022-12-23T06:40:35.704Z,90.42
2022-12-23T06:43:02.602Z,91.09
2022-12-23T06:45:29.652Z,91.15
2022-12-23T06:47:56.652Z,90.52
2022-12-23T06:50:23.568Z,89.99
2022-12-23T06:52:50.866Z,89.83
2022-12-23T06:55:17.704Z,89.61
2022-12-23T06:57:45.061Z,89.00
2022-12-23T07:00:12.715Z,88.74
2022-12-23T07:02:39.701Z,88.00
2022-12-23T07:05:06.986Z,87.27
2022-12-23T07:07:34.064Z,86.21
2022-12-23T07:10:01.051Z,86.55
2022-12-23T07:12:28.011Z,88.40
2022-12-23T07:14:55.224Z,88.53
2022-12-23T07:17:22.113Z,87.37
2022-12-23T07:19:49.070Z,87.51
2022-12-23T07:22:15.992Z,87.14
2022-12-23T07:24:43.106Z,87.89
2022-12-23T07:27:10.001Z,88.51
2022-12-23T07:29:36.991Z,89.27
2022-12-23T07:32:04.049Z,89.33
2022-12-23T07:34:31.360Z,89.77
2022-12-23T07:37:01.172Z,90.15
2022-12-23T07:39:28.462Z,90.87
2022-12-23T07:42:16.547Z,91.24
2022-12-23T07:44:42.440Z,90.91
2022-12-23T07:47:09.237Z,91.07
2022-12-23T07:49:36.099Z,91.53
2022-12-23T07:52:03.147Z,90.69
2022-12-23T07:54:30.238Z,91.18
2022-12-23T07:56:57.351Z,90.84
2022-12-23T07:59:26.441Z,90.03
2022-12-23T08:01:53.411Z,90.39
2022-12-23T08:04:20.457Z,89.58
2022-12-23T08:06:47.584Z,90.10
2022-12-23T08:09:14.433Z,89.92
2022-12-23T08:11:41.474Z,89.66
2022-12-23T08:14:08.499Z,90.00
2022-12-23T08:16:41.327Z,89.83
2022-12-23T08:19:10.514Z,89.04
2022-12-23T08:21:37.361Z,89.38
2022-12-23T08:24:04.640Z,88.90
2022-12-23T08:26:32.769Z,88.85
2022-12-23T08:29:00.937Z,88.13
2022-12-23T08:31:31.738Z,88.33
2022-12-23T08:34:00.395Z,88.47
2022-12-23T08:36:38.142Z,89.66
2022-12-23T08:39:08.326Z,90.29
2022-12-23T08:41:42.025Z,90.52
2022-12-23T08:44:22.270Z,90.52
2022-12-23T08:46:49.576Z,90.56
2022-12-23T08:49:18.911Z,90.30
2022-12-23T08:51:45.845Z,90.36
2022-12-23T08:54:12.999Z,90.48
2022-12-23T08:56:41.897Z,90.06
2022-12-23T08:59:18.760Z,90.12
2022-12-23T09:01:47.258Z,89.11
2022-12-23T09:04:14.591Z,89.42
2022-12-23T09:06:42.577Z,89.46
2022-12-23T09:09:12.805Z,89.55
2022-12-23T09:11:39.863Z,89.62
2022-12-23T09:14:07.191Z,89.50
2022-12-23T09:16:34.428Z,88.92
2022-12-23T09:19:01.383Z,88.50
2022-12-23T09:21:28.486Z,88.63
2022-12-23T09:23:55.386Z,88.02
2022-12-23T09:26:25.211Z,87.33
2022-12-23T09:28:52.573Z,87.48
2022-12-23T09:31:20.832Z,87.51
2022-12-23T09:33:49.736Z,87.68
2022-12-23T09:36:17.089Z,87.31
2022-12-23T09:38:44.169Z,86.88
2022-12-23T09:41:55.098Z,86.78
2022-12-23T09:44:37.911Z,86.90
2022-12-23T09:47:17.486Z,86.61
2022-12-23T09:49:54.407Z,87.05
2022-12-23T09:52:31.541Z,87.42
2022-12-23T09:54:58.494Z,87.60
2022-12-23T09:57:39.895Z,86.93
2022-12-23T10:00:18.843Z,86.21
2022-12-23T10:03:00.852Z,86.65
2022-12-23T10:05:27.785Z,86.77
2022-12-23T10:08:18.055Z,86.96
2022-12-23T10:10:54.239Z,87.21
2022-12-23T10:13:32.760Z,86.78
2022-12-23T10:16:04.418Z,86.31
2022-12-23T10:18:45.268Z,86.21
2022-12-23T10:21:42.309Z,85.38
2022-12-23T10:24:23.431Z,85.09
2022-12-23T10:27:16.563Z,85.10
2022-12-23T10:29:43.672Z,85.83
2022-12-23T10:32:33.353Z,85.62
2022-12-23T10:35:31.044Z,85.11
2022-12-23T10:38:21.199Z,84.98
2022-12-23T10:40:48.156Z,84.54
2022-12-23T10:43:27.360Z,83.34
2022-12-23T10:46:08.933Z,83.31
2022-12-23T10:48:51.172Z,83.01
2022-12-23T10:51:36.759Z,82.63
2022-12-23T10:54:15.554Z,82.85
2022-12-23T10:56:43.963Z,82.67
2022-12-23T10:59:15.125Z,83.21
2022-12-23T11:01:49.320Z,82.00
2022-12-23T11:04:26.735Z,82.55
2022-12-23T11:07:18.296Z,81.68
2022-12-23T11:09:54.442Z,81.78
2022-12-23T11:12:40.507Z,82.43
2022-12-23T11:15:28.395Z,81.63
2022-12-23T11:18:19.734Z,80.62
2022-12-23T11:21:03.190Z,80.65
2022-12-23T11:23:35.591Z,80.35
2022-12-23T11:26:11.170Z,79.82
2022-12-23T11:28:48.462Z,77.76
2022-12-23T11:31:15.778Z,77.45
2022-12-23T11:34:01.369Z,77.04
2022-12-23T11:36:30.280Z,78.84
2022-12-23T11:39:15.127Z,79.96
2022-12-23T11:41:48.142Z,79.14
2022-12-23T11:44:50.903Z,78.24
2022-12-23T11:47:23.693Z,78.22
2022-12-23T11:50:02.324Z,79.47
2022-12-23T11:52:31.511Z,80.32
2022-12-23T11:55:01.787Z,80.12
2022-12-23T11:57:46.726Z,79.98
2022-12-23T12:00:26.400Z,80.42
2022-12-23T12:02:56.702Z,80.42
2022-12-23T12:05:51.851Z,79.82
2022-12-23T12:08:24.977Z,79.17
2022-12-23T12:10:53.988Z,78.45
2022-12-23T12:13:36.329Z,76.80
2022-12-23T12:16:12.454Z,77.72
2022-12-23T12:18:42.313Z,75.73
2022-12-23T12:21:17.994Z,76.04
2022-12-23T12:24:14.822Z,75.52
2022-12-23T12:26:42.604Z,77.21
2022-12-23T12:29:36.401Z,77.81
2022-12-23T12:32:04.846Z,78.40
2022-12-23T12:34:50.084Z,78.61
2022-12-23T12:37:46.859Z,77.11
2022-12-23T12:40:35.167Z,75.82
2022-12-23T12:43:26.455Z,76.56
2022-12-23T12:46:14.972Z,76.65
2022-12-23T12:48:56.967Z,76.20
2022-12-23T12:51:43.752Z,75.77
2022-12-23T12:54:22.454Z,75.52
2022-12-23T12:56:52.988Z,75.73
2022-12-23T12:59:38.298Z,73.68
2022-12-23T13:02:27.096Z,74.48
2022-12-23T13:05:12.393Z,75.17
2022-12-23T13:08:10.992Z,74.92
2022-12-23T13:10:53.623Z,74.85
2022-12-23T13:13:32.239Z,75.69
2022-12-23T13:16:11.392Z,76.06
2022-12-23T13:18:53.491Z,76.82
2022-12-23T13:21:31.222Z,76.81
2022-12-23T13:24:12.339Z,76.82
2022-12-23T13:26:45.121Z,75.99
2022-12-23T13:29:54.585Z,75.29
2022-12-23T13:32:37.473Z,74.41
2022-12-23T13:35:32.716Z,74.08
2022-12-23T13:38:02.521Z,74.49
2022-12-23T13:40:38.130Z,75.09
2022-12-23T13:43:26.264Z,75.38
2022-12-23T13:45:55.046Z,75.33
2022-12-23T13:48:36.540Z,76.13
2022-12-23T13:51:25.105Z,75.74
2022-12-23T13:54:04.955Z,76.00
2022-12-23T13:57:26.288Z,76.20
2022-12-23T14:00:16.833Z,75.75
2022-12-23T14:02:52.302Z,75.47
2022-12-23T14:05:41.271Z,75.47
2022-12-23T14:08:28.262Z,75.20
2022-12-23T14:11:11.413Z,75.18
2022-12-23T14:13:51.939Z,74.80
2022-12-23T14:16:27.939Z,75.10
2022-12-23T14:19:22.885Z,75.20
2022-12-23T14:22:18.532Z,74.52
2022-12-23T14:25:36.644Z,75.26
2022-12-23T14:28:22.298Z,74.76
2022-12-23T14:30:49.461Z,74.93
2022-12-23T14:33:31.247Z,74.58
2022-12-23T14:36:15.479Z,75.11
2022-12-23T14:38:42.529Z,76.32
2022-12-23T14:41:20.370Z,77.05
2022-12-23T14:43:47.150Z,77.54
2022-12-23T14:46:42.073Z,76.67
2022-12-23T14:49:38.848Z,79.36
2022-12-23T14:52:44.697Z,81.01
2022-12-23T14:55:32.318Z,81.06
2022-12-23T14:58:13.524Z,80.25
2022-12-23T15:01:09.343Z,80.38
2022-12-23T15:03:43.565Z,80.83
2022-12-23T15:06:16.647Z,80.48
2022-12-23T15:08:46.260Z,81.12
2022-12-23T15:11:22.087Z,82.05
2022-12-23T15:13:51.787Z,81.73
2022-12-23T15:16:19.190Z,82.13
2022-12-23T15:18:56.958Z,81.25
2022-12-23T15:21:34.759Z,81.20
2022-12-23T15:24:03.025Z,82.31
2022-12-23T15:26:32.772Z,82.12
2022-12-23T15:29:00.698Z,82.56
2022-12-23T15:31:29.901Z,82.48
2022-12-23T15:34:03.357Z,82.91
2022-12-23T15:36:33.565Z,82.46
2022-12-23T15:39:01.618Z,81.24
2022-12-23T15:41:29.381Z,81.12
2022-12-23T15:43:57.854Z,80.60
2022-12-23T15:46:30.053Z,81.89
2022-12-23T15:48:57.904Z,82.17
2022-12-23T15:54:38.835Z,82.95
2022-12-23T15:57:06.100Z,82.66
2022-12-23T15:59:38.619Z,82.62
2022-12-23T16:05:31.307Z,81.91
2022-12-23T16:08:16.635Z,81.85
2022-12-23T16:10:57.161Z,81.45
2022-12-23T16:13:24.427Z,81.32
2022-12-23T16:15:51.450Z,81.47
2022-12-23T16:18:24.840Z,81.49
2022-12-23T16:20:58.517Z,81.35
2022-12-23T16:23:30.173Z,80.65
2022-12-23T16:26:02.316Z,81.25
2022-12-23T16:28:44.325Z,80.69
2022-12-23T16:31:15.157Z,80.39
2022-12-23T16:33:44.979Z,80.50
2022-12-23T16:36:36.552Z,82.42
2022-12-23T16:39:07.407Z,83.43
2022-12-23T16:41:34.840Z,84.36
2022-12-23T16:44:02.366Z,84.14
2022-12-23T16:46:33.754Z,83.24
2022-12-23T16:49:04.817Z,83.02
2022-12-23T16:51:32.734Z,82.63
2022-12-23T16:54:01.324Z,81.61
2022-12-23T16:56:34.452Z,82.33
2022-12-23T16:59:01.697Z,83.27
2022-12-23T17:01:31.049Z,83.68
2022-12-23T17:03:58.169Z,83.59
2022-12-23T17:06:25.753Z,83.09
2022-12-23T17:08:53.640Z,82.24
2022-12-23T17:11:37.671Z,82.87
2022-12-23T17:14:11.891Z,82.45
2022-12-23T17:16:42.279Z,82.66
2022-12-23T17:19:09.177Z,82.37
2022-12-23T17:21:36.898Z,82.38
2022-12-23T17:24:12.744Z,81.96
2022-12-23T17:26:39.685Z,82.08
2022-12-23T17:29:07.058Z,82.01
2022-12-23T17:31:35.016Z,81.51
2022-12-23T17:34:02.282Z,81.57
2022-12-23T17:36:29.973Z,80.54
2022-12-23T17:38:57.643Z,80.08
2022-12-23T17:41:29.820Z,80.22
2022-12-23T17:43:57.379Z,79.50
2022-12-23T17:46:25.122Z,79.24
2022-12-23T17:48:52.804Z,80.25
2022-12-23T17:51:22.235Z,79.76
2022-12-23T17:53:56.819Z,79.99
2022-12-23T17:56:25.134Z,79.34
2022-12-23T17:58:52.298Z,78.90
2022-12-23T18:01:31.508Z,78.46
2022-12-23T18:03:59.902Z,78.52
2022-12-23T18:06:28.921Z,81.67
2022-12-23T18:08:56.147Z,82.88
2022-12-23T18:11:25.943Z,83.58
2022-12-23T18:13:54.106Z,83.53
2022-12-23T18:16:21.091Z,83.71
2022-12-23T18:18:48.283Z,84.62
2022-12-23T18:21:22.628Z,83.74
2022-12-23T18:23:50.644Z,83.40
2022-12-23T18:26:17.825Z,82.98
2022-12-23T18:28:45.311Z,83.59
2022-12-23T18:31:24.919Z,84.17
2022-12-23T18:33:52.028Z,83.65
2022-12-23T18:36:24.827Z,82.21
2022-12-23T18:38:52.819Z,82.78
2022-12-23T18:41:21.158Z,82.59
2022-12-23T18:43:48.475Z,83.39
2022-12-23T18:46:15.714Z,83.93
2022-12-23T18:48:43.065Z,84.91
2022-12-23T18:51:15.485Z,85.39
2022-12-23T18:53:42.563Z,85.86
2022-12-23T18:56:16.945Z,85.51
2022-12-23T18:58:43.859Z,86.24
2022-12-23T19:01:15.812Z,85.66
2022-12-23T19:03:43.820Z,85.94
2022-12-23T19:06:13.877Z,86.03
2022-12-23T19:08:42.216Z,86.97
2022-12-23T19:11:17.846Z,86.95
2022-12-23T19:13:45.468Z,86.86
2022-12-23T19:16:17.095Z,87.14
2022-12-23T19:18:44.608Z,87.14
2022-12-23T19:21:11.964Z,87.14
2022-12-23T19:23:43.085Z,86.36
2022-12-23T19:26:11.729Z,86.54
2022-12-23T19:28:39.331Z,87.49
2022-12-23T19:31:11.843Z,87.92
2022-12-23T19:33:40.820Z,88.15
2022-12-23T19:36:22.474Z,87.64
2022-12-23T19:38:49.686Z,87.38
2022-12-23T19:41:17.143Z,87.26
2022-12-23T19:43:46.281Z,87.12
2022-12-23T19:46:14.430Z,87.37
2022-12-23T19:48:41.742Z,87.31
2022-12-23T19:51:11.651Z,87.11
2022-12-23T19:53:41.371Z,87.69
2022-12-23T19:56:13.181Z,88.26
2022-12-23T19:58:42.211Z,88.43
2022-12-23T20:01:11.127Z,89.75
2022-12-23T20:03:39.224Z,90.26
2022-12-23T20:06:08.572Z,89.63
2022-12-23T20:08:35.638Z,88.88
2022-12-23T20:11:07.928Z,87.78
2022-12-23T20:13:35.951Z,87.28
2022-12-23T20:16:03.793Z,86.59
2022-12-23T20:18:30.917Z,86.20
2022-12-23T20:20:57.825Z,85.21
2022-12-23T20:23:25.380Z,85.30
2022-12-23T20:25:52.189Z,85.33
2022-12-23T20:28:19.295Z,84.62
2022-12-23T20:30:47.302Z,84.79
2022-12-23T20:33:15.736Z,84.76
2022-12-23T20:35:42.604Z,84.71
2022-12-23T20:38:09.617Z,84.25
2022-12-23T20:40:36.487Z,83.71
2022-12-23T20:43:03.418Z,84.16
2022-12-23T20:45:30.386Z,85.87
2022-12-23T20:47:57.326Z,87.83
2022-12-23T20:50:24.330Z,89.46
2022-12-23T20:52:51.262Z,89.17
2022-12-23T20:55:18.317Z,89.93
2022-12-23T20:57:45.579Z,90.29
2022-12-23T21:00:13.197Z,90.75
2022-12-23T21:02:40.410Z,90.81
2022-12-23T21:05:07.573Z,90.71
2022-12-23T21:07:34.572Z,89.74
2022-12-23T21:10:01.437Z,89.90
2022-12-23T21:12:28.410Z,89.82
2022-12-23T21:14:55.359Z,89.52
2022-12-23T21:17:22.342Z,88.99
2022-12-23T21:19:49.376Z,88.50
2022-12-23T21:22:16.301Z,87.85
2022-12-23T21:24:43.151Z,87.26
2022-12-23T21:27:09.977Z,87.28
2022-12-23T21:29:36.818Z,86.69
2022-12-23T21:32:03.879Z,87.42
2022-12-23T21:34:30.894Z,86.68
2022-12-23T21:36:57.848Z,86.28
2022-12-23T21:39:24.905Z,86.25
2022-12-23T21:41:51.853Z,85.82
2022-12-23T21:44:18.892Z,85.83
2022-12-23T21:46:45.889Z,86.82
2022-12-23T21:49:12.786Z,86.92
2022-12-23T21:51:41.293Z,87.43
2022-12-23T21:54:11.178Z,88.05
2022-12-23T21:56:39.969Z,88.52
2022-12-23T21:59:10.917Z,89.09
2022-12-23T22:01:38.362Z,88.40
2022-12-23T22:04:05.782Z,88.86
2022-12-23T22:06:36.666Z,89.24
2022-12-23T22:09:07.533Z,89.20
2022-12-23T22:11:36.344Z,88.78
2022-12-23T22:14:05.564Z,89.09
2022-12-23T22:16:34.571Z,88.83
2022-12-23T22:19:02.393Z,88.79
2022-12-23T22:21:31.380Z,88.80
2022-12-23T22:23:58.779Z,89.08
2022-12-23T22:26:31.146Z,89.11
2022-12-23T22:29:00.685Z,89.56
2022-12-23T22:31:42.271Z,90.06
2022-12-23T22:34:21.707Z,89.83
2022-12-23T22:36:49.588Z,90.31
2022-12-23T22:39:20.953Z,90.09
2022-12-23T22:41:50.013Z,89.25
2022-12-23T22:44:16.833Z,89.12
2022-12-23T22:46:44.112Z,88.33
2022-12-23T22:49:13.021Z,88.35
2022-12-23T22:51:41.413Z,89.85
2022-12-23T22:54:09.457Z,90.53
2022-12-23T22:56:36.402Z,91.12
2022-12-23T22:59:03.665Z,92.08
2022-12-23T23:01:35.717Z,92.28
2022-12-23T23:04:04.473Z,92.74
2022-12-23T23:06:34.339Z,93.30
2022-12-23T23:09:01.491Z,93.13
2022-12-23T23:11:36.578Z,93.59
2022-12-23T23:14:03.577Z,92.84
2022-12-23T23:16:30.663Z,93.12
2022-12-23T23:18:58.173Z,92.45
2022-12-23T23:21:25.765Z,92.92
2022-12-23T23:23:52.909Z,92.76
2022-12-23T23:26:20.720Z,93.39
2022-12-23T23:28:48.313Z,93.73
2022-12-23T23:34:02.151Z,93.90
2022-12-23T23:36:29.085Z,93.86
2022-12-23T23:38:56.179Z,94.05
2022-12-23T23:41:24.167Z,94.52
2022-12-23T23:43:51.834Z,93.92
2022-12-23T23:46:18.944Z,93.83
2022-12-23T23:48:46.206Z,94.48
2022-12-23T23:51:13.169Z,94.89
2022-12-23T23:53:40.706Z,94.30
2022-12-23T23:56:08.910Z,94.38
2022-12-23T23:58:36.656Z,94.32
